Time;durP1;ratioP1;P1;durP2;ratioP2;P2;SDS_P1;SDS_P2;PMS_P1;PMS_P2;Temp;Humidity;BMP_temperature;BMP_pressure;BME280_temperature;BME280_humidity;BME280_pressure;Samples;Min_cycle;Max_cycle;Signal;HPM_P1;HPM_P2
2023/02/19 00:01:49;;;;;;;1.38;1.00;;;;;;;16.44;88.50;96742.38;5095306;27;20075;-47
2023/02/19 00:04:20;;;;;;;2.38;1.00;;;;;;;16.29;96.42;96746.78;5097718;27;20087;-51
2023/02/19 00:06:49;;;;;;;1.20;0.65;;;;;;;16.51;93.70;96739.84;5102456;27;20083;-52
2023/02/19 00:09:19;;;;;;;3.78;2.63;;;;;;;16.69;90.70;96742.22;5099114;27;20475;-48
2023/02/19 00:11:47;;;;;;;1.60;1.10;;;;;;;16.48;94.41;96746.38;5104135;27;20095;-49
2023/02/19 00:14:17;;;;;;;2.88;1.13;;;;;;;16.71;88.21;96741.06;5102230;27;20085;-45
2023/02/19 00:16:45;;;;;;;1.92;1.00;;;;;;;16.20;92.32;96737.16;5103435;27;20082;-52
2023/02/19 00:19:15;;;;;;;1.77;1.00;;;;;;;16.67;89.50;96737.09;5097423;27;20072;-49
2023/02/19 00:21:45;;;;;;;2.88;1.20;;;;;;;16.53;90.33;96732.53;5095566;27;20079;-49
2023/02/19 00:24:14;;;;;;;2.05;1.08;;;;;;;16.71;91.25;96729.59;5093736;27;20132;-47
2023/02/19 00:26:44;;;;;;;1.60;0.98;;;;;;;16.17;100.00;96714.38;5098227;27;20483;-49
2023/02/19 00:29:14;;;;;;;1.77;0.90;;;;;;;16.11;97.37;96702.63;5096676;27;20067;-54
2023/02/19 00:31:43;;;;;;;1.83;1.00;;;;;;;15.84;100.00;96714.53;5094620;27;20717;-47
2023/02/19 00:34:12;;;;;;;1.80;1.10;;;;;;;16.37;99.74;96717.47;5102338;27;20075;-52
2023/02/19 00:36:41;;;;;;;1.50;1.25;;;;;;;16.37;98.02;96715.63;5100234;27;20094;-50
2023/02/19 00:39:14;;;;;;;1.85;1.10;;;;;;;16.07;100.00;96714.63;5098866;27;20075;-48
2023/02/19 00:41:43;;;;;;;3.63;1.48;;;;;;;16.64;100.00;96713.47;5100495;27;20083;-53
2023/02/19 00:44:12;;;;;;;1.45;1.05;;;;;;;16.29;100.00;96709.53;5096309;27;20472;-49
2023/02/19 00:46:42;;;;;;;1.20;0.85;;;;;;;16.20;100.00;96710.56;5100229;27;20079;-49
2023/02/19 00:49:16;;;;;;;2.08;1.25;;;;;;;16.03;100.00;96702.66;5102554;27;20067;-50
2023/02/19 00:51:44;;;;;;;3.60;2.05;;;;;;;15.78;100.00;96693.94;5101951;27;20047;-48
2023/02/19 00:54:14;;;;;;;2.10;1.10;;;;;;;16.32;100.00;96695.88;5093119;28;20079;-48
2023/02/19 00:56:42;;;;;;;2.00;1.13;;;;;;;16.00;100.00;96692.38;5100011;27;20121;-49
2023/02/19 00:59:11;;;;;;;1.45;1.25;;;;;;;16.07;100.00;96701.31;5099160;27;20904;-48
2023/02/19 01:01:39;;;;;;;1.70;1.30;;;;;;;16.12;100.00;96700.78;5099104;27;20082;-46
2023/02/19 01:04:08;;;;;;;1.35;0.77;;;;;;;16.17;100.00;96700.25;5100395;27;20075;-48
2023/02/19 01:06:36;;;;;;;1.73;1.02;;;;;;;16.25;100.00;96697.59;5099889;27;20076;-48
2023/02/19 01:09:05;;;;;;;1.17;0.80;;;;;;;16.12;100.00;96692.81;5100252;27;20082;-50
2023/02/19 01:11:35;;;;;;;1.40;1.02;;;;;;;16.26;100.00;96685.94;5105623;27;20089;-50
2023/02/19 01:14:04;;;;;;;1.27;0.80;;;;;;;16.61;100.00;96700.53;5102747;27;20090;-50
2023/02/19 01:16:32;;;;;;;1.17;0.90;;;;;;;16.27;100.00;96690.22;5094018;28;20483;-47
2023/02/19 01:19:00;;;;;;;1.98;1.05;;;;;;;16.27;100.00;96683.06;5105303;27;20083;-51
2023/02/19 01:21:30;;;;;;;2.40;0.98;;;;;;;15.75;100.00;96680.97;5093631;27;20098;-54
2023/02/19 01:23:59;;;;;;;2.55;1.10;;;;;;;16.04;100.00;96691.03;5096430;27;20087;-51
2023/02/19 01:26:28;;;;;;;2.47;1.17;;;;;;;16.03;100.00;96689.34;5104854;27;20104;-51
2023/02/19 01:28:59;;;;;;;2.38;1.23;;;;;;;16.38;100.00;96682.69;5102900;27;20086;-47
2023/02/19 01:31:27;;;;;;;1.15;1.00;;;;;;;15.79;100.00;96678.81;5093567;27;20084;-49
2023/02/19 01:33:58;;;;;;;2.78;1.45;;;;;;;16.30;100.00;96669.41;5092892;28;20118;-51
2023/02/19 01:36:27;;;;;;;2.40;1.48;;;;;;;15.98;100.00;96670.44;5100363;27;20087;-49
2023/02/19 01:38:55;;;;;;;2.22;1.50;;;;;;;15.97;100.00;96674.09;5101782;27;20086;-49
2023/02/19 01:41:25;;;;;;;3.47;1.30;;;;;;;16.17;100.00;96666.50;5098815;27;20064;-50
2023/02/19 01:44:00;;;;;;;2.85;1.45;;;;;;;15.67;100.00;96662.41;5104374;27;20079;-48
2023/02/19 01:46:29;;;;;;;1.75;1.30;;;;;;;16.25;100.00;96658.50;5097010;27;20463;-54
2023/02/19 01:48:59;;;;;;;1.77;1.08;;;;;;;16.28;100.00;96649.34;5098650;27;20247;-50
2023/02/19 01:51:27;;;;;;;3.67;1.53;;;;;;;15.76;100.00;96647.25;5106811;27;20094;-51
2023/02/19 01:53:58;;;;;;;2.13;1.20;;;;;;;16.11;100.00;96652.06;5102861;27;20507;-52
2023/02/19 01:56:27;;;;;;;2.17;1.20;;;;;;;16.14;100.00;96648.25;5090240;27;20075;-51
2023/02/19 01:58:55;;;;;;;2.63;1.23;;;;;;;16.03;100.00;96644.13;5106835;27;20085;-51
2023/02/19 02:01:25;;;;;;;2.08;1.35;;;;;;;15.99;100.00;96647.31;5095475;27;20087;-49
2023/02/19 02:03:53;;;;;;;2.33;1.40;;;;;;;15.82;100.00;96633.25;5099478;27;20087;-44
2023/02/19 02:06:23;;;;;;;1.90;1.10;;;;;;;16.07;100.00;96631.31;5097108;28;20084;-48
2023/02/19 02:11:41;;;;;;;1.83;1.38;;;;;;;15.87;100.00;96630.94;5099960;27;20082;-46
2023/02/19 02:14:10;;;;;;;2.58;1.00;;;;;;;15.79;100.00;96623.78;5098857;28;20086;-51
2023/02/19 02:16:44;;;;;;;1.63;1.20;;;;;;;16.40;100.00;96631.94;5089271;28;20091;-54
2023/02/19 02:19:26;;;;;;;2.42;1.52;;;;;;;15.64;100.00;96618.34;5098320;27;20481;-49
2023/02/19 02:22:01;;;;;;;1.50;1.02;;;;;;;15.85;100.00;96619.63;5097856;27;20105;-47
2023/02/19 02:24:48;;;;;;;1.70;1.13;;;;;;;16.01;100.00;96614.22;5096786;27;20480;-53
2023/02/19 02:27:32;;;;;;;1.73;1.00;;;;;;;16.06;100.00;96619.84;5091137;27;20090;-48
2023/02/19 02:30:20;;;;;;;3.20;1.45;;;;;;;16.35;100.00;96613.03;5091783;28;20079;-51
2023/02/19 02:32:55;;;;;;;1.70;1.13;;;;;;;16.27;100.00;96603.25;5099258;28;20087;-50
2023/02/19 02:35:26;;;;;;;3.50;1.55;;;;;;;16.04;100.00;96594.44;5096334;27;20106;-49
2023/02/19 02:37:57;;;;;;;1.35;1.20;;;;;;;15.92;100.00;96619.75;5099518;27;20084;-53
2023/02/19 02:40:25;;;;;;;;;;;;;;;15.97;100.00;96604.13;5095746;27;20102;-48
2023/02/19 02:42:56;;;;;;;2.00;1.23;;;;;;;15.92;100.00;96601.97;5092029;27;19959;-47
2023/02/19 02:45:35;;;;;;;2.15;1.38;;;;;;;15.68;100.00;96597.59;5099900;27;20091;-47
2023/02/19 02:48:10;;;;;;;1.90;1.40;;;;;;;15.94;100.00;96578.69;5093626;28;20106;-51
2023/02/19 02:50:42;;;;;;;1.95;1.42;;;;;;;15.74;100.00;96565.00;5098595;28;20088;-49
2023/02/19 02:56:00;;;;;;;2.10;1.60;;;;;;;15.72;100.00;96579.47;5105391;27;20094;-50
2023/02/19 02:58:29;;;;;;;3.47;1.67;;;;;;;15.93;100.00;96587.66;5103792;27;20456;-52
2023/02/19 03:03:51;;;;;;;2.17;1.10;;;;;;;15.92;100.00;96580.69;5107768;27;20078;-49
2023/02/19 03:06:21;;;;;;;3.28;1.70;;;;;;;16.13;100.00;96564.09;5108668;27;20078;-52
2023/02/19 03:08:54;;;;;;;1.58;1.17;;;;;;;15.72;100.00;96564.34;5114554;27;20496;-51
2023/02/19 03:19:50;;;;;;;2.17;1.63;;;;;;;16.01;100.00;96571.66;5095441;27;20497;-48
2023/02/19 03:22:23;;;;;;;2.95;1.52;;;;;;;15.93;100.00;96563.72;5114535;27;20094;-56
2023/02/19 03:27:43;;;;;;;2.30;1.63;;;;;;;16.01;100.00;96557.53;5107834;27;20047;-52
2023/02/19 03:30:16;;;;;;;2.40;1.70;;;;;;;15.57;100.00;96568.72;5105350;27;20071;-50
2023/02/19 03:32:48;;;;;;;3.28;1.60;;;;;;;15.81;100.00;96547.34;5104147;27;20086;-51
2023/02/19 03:35:19;;;;;;;2.33;1.40;;;;;;;15.56;100.00;96559.09;5105269;27;20090;-45
2023/02/19 03:37:52;;;;;;;2.58;1.50;;;;;;;15.59;100.00;96558.75;5098589;27;20685;-49
2023/02/19 03:40:21;;;;;;;2.05;1.40;;;;;;;15.34;100.00;96552.69;5101789;27;20102;-53
2023/02/19 03:42:56;;;;;;;3.28;1.90;;;;;;;16.04;100.00;96554.53;5099833;27;20070;-47
2023/02/19 03:45:38;;;;;;;1.55;1.13;;;;;;;15.57;100.00;96552.75;5098889;27;20530;-52
2023/02/19 03:48:23;;;;;;;2.17;1.50;;;;;;;15.27;100.00;96544.56;5097906;28;20071;-49
2023/02/19 03:50:58;;;;;;;4.90;1.67;;;;;;;15.59;100.00;96548.94;5093654;28;20498;-49
2023/02/19 03:53:30;;;;;;;2.28;1.67;;;;;;;15.85;100.00;96553.97;5098111;28;20089;-52
2023/02/19 03:56:06;;;;;;;2.05;1.50;;;;;;;15.42;100.00;96558.81;5103063;28;20082;-46
2023/02/19 03:58:40;;;;;;;3.75;1.90;;;;;;;15.22;100.00;96565.53;5099847;27;20071;-50
2023/02/19 04:01:10;;;;;;;4.00;1.45;;;;;;;14.92;100.00;96562.59;5097154;28;20160;-46
2023/02/19 04:03:42;;;;;;;;;;;;;;;14.85;100.00;96566.09;5094739;28;20078;-48
2023/02/19 04:06:14;;;;;;;2.97;1.58;;;;;;;15.52;100.00;96563.91;5101758;28;20024;-52
2023/02/19 04:08:46;;;;;;;2.05;1.60;;;;;;;15.19;100.00;96560.53;5095038;28;20082;-50
2023/02/19 04:11:15;;;;;;;2.72;1.60;;;;;;;14.94;100.00;96559.78;5094949;28;20056;-50
2023/02/19 04:13:46;;;;;;;4.13;1.63;;;;;;;15.14;100.00;96545.13;5097214;28;20078;-48
2023/02/19 04:16:18;;;;;;;2.63;1.40;;;;;;;15.27;100.00;96563.16;5096943;28;20086;-50
2023/02/19 04:18:50;;;;;;;1.98;1.52;;;;;;;14.93;100.00;96572.25;5092731;28;20068;-52
2023/02/19 04:21:19;;;;;;;2.33;1.60;;;;;;;15.36;100.00;96564.81;5096520;28;20063;-52
2023/02/19 04:23:47;;;;;;;2.20;1.75;;;;;;;14.67;100.00;96558.34;5091184;28;20074;-55
2023/02/19 04:26:17;;;;;;;1.98;1.48;;;;;;;15.27;100.00;96565.81;5092522;28;20090;-50
2023/02/19 04:28:46;;;;;;;1.98;1.42;;;;;;;15.12;100.00;96559.56;5091642;28;20565;-52
2023/02/19 04:31:14;;;;;;;2.78;1.77;;;;;;;15.46;100.00;96553.16;5095211;28;20539;-48
2023/02/19 04:33:43;;;;;;;3.50;1.65;;;;;;;14.48;100.00;96552.31;5094543;28;20098;-50
2023/02/19 04:36:12;;;;;;;2.25;1.50;;;;;;;14.46;100.00;96554.34;5095631;28;20486;-49
2023/02/19 04:38:41;;;;;;;3.53;1.75;;;;;;;14.43;100.00;96549.34;5100768;28;20096;-48
2023/02/19 04:41:09;;;;;;;1.40;1.05;;;;;;;14.59;100.00;96566.28;5095895;28;20074;-47
2023/02/19 04:43:38;;;;;;;2.90;1.83;;;;;;;14.81;100.00;96570.09;5100020;28;20087;-52
2023/02/19 04:46:06;;;;;;;2.05;1.55;;;;;;;14.94;100.00;96579.19;5096620;27;20078;-46
2023/02/19 04:48:34;;;;;;;3.25;1.83;;;;;;;14.53;100.00;96569.63;5097252;28;20080;-50
2023/02/19 04:51:05;;;;;;;2.40;1.92;;;;;;;14.70;100.00;96565.97;5101047;28;20086;-48
2023/02/19 04:53:35;;;;;;;4.55;1.35;;;;;;;14.70;100.00;96577.41;5098838;27;20094;-54
2023/02/19 04:56:07;;;;;;;2.47;1.60;;;;;;;14.82;100.00;96574.41;5096111;27;20083;-50
2023/02/19 04:58:36;;;;;;;4.18;1.67;;;;;;;14.71;100.00;96581.72;5104621;27;20074;-52
2023/02/19 05:01:04;;;;;;;3.35;1.80;;;;;;;14.77;100.00;96585.53;5091033;28;20087;-53
2023/02/19 05:03:33;;;;;;;2.33;1.60;;;;;;;14.21;100.00;96572.09;5102659;27;20471;-53
2023/02/19 05:06:03;;;;;;;2.45;1.85;;;;;;;14.31;100.00;96585.16;5109133;27;20467;-51
2023/02/19 05:08:31;;;;;;;2.47;1.48;;;;;;;14.41;100.00;96563.78;5098876;28;20072;-48
2023/02/19 05:11:01;;;;;;;1.55;1.20;;;;;;;14.15;100.00;96556.00;5104442;27;20078;-50
2023/02/19 05:13:30;;;;;;;;;;;;;;;14.25;100.00;96573.41;5098843;27;20101;-51
2023/02/19 05:15:59;;;;;;;3.70;1.80;;;;;;;14.39;100.00;96579.88;5094125;28;19970;-51
2023/02/19 05:18:28;;;;;;;2.75;1.60;;;;;;;14.14;100.00;96586.13;5098197;27;20528;-49
2023/02/19 05:20:57;;;;;;;2.30;1.50;;;;;;;14.43;100.00;96591.00;5096001;27;20082;-50
2023/02/19 05:23:27;;;;;;;1.73;1.50;;;;;;;14.60;100.00;96584.72;5098042;27;20092;-50
2023/02/19 05:25:55;;;;;;;3.17;1.63;;;;;;;14.09;100.00;96591.13;5101341;27;20507;-53
2023/02/19 05:28:27;;;;;;;2.17;1.42;;;;;;;14.21;100.00;96587.13;5098379;27;20071;-50
2023/02/19 05:30:56;;;;;;;2.28;1.70;;;;;;;14.52;100.00;96586.53;5097894;27;20088;-53
2023/02/19 05:33:25;;;;;;;1.48;1.23;;;;;;;14.60;100.00;96605.13;5096888;28;20086;-49
2023/02/19 05:35:55;;;;;;;1.92;1.42;;;;;;;14.88;100.00;96598.44;5091212;27;20079;-49
2023/02/19 05:38:24;;;;;;;2.83;1.42;;;;;;;14.51;100.00;96600.78;5095296;27;20087;-55
2023/02/19 05:40:52;;;;;;;2.08;1.73;;;;;;;14.22;100.00;96594.13;5092636;27;20083;-52
2023/02/19 05:43:20;;;;;;;2.45;1.45;;;;;;;14.55;100.00;96607.44;5101945;27;20106;-52
2023/02/19 05:45:50;;;;;;;2.92;1.58;;;;;;;14.52;100.00;96610.41;5095653;27;20614;-47
2023/02/19 05:48:18;;;;;;;2.63;1.70;;;;;;;14.58;100.00;96605.28;5102243;27;20083;-51
2023/02/19 05:50:46;;;;;;;3.20;1.60;;;;;;;14.68;100.00;96615.72;5099359;27;20079;-52
2023/02/19 05:53:15;;;;;;;3.67;1.70;;;;;;;14.44;100.00;96604.06;5109441;27;20086;-48
2023/02/19 05:55:43;;;;;;;1.65;1.40;;;;;;;14.17;100.00;96628.25;5091322;27;20470;-54
2023/02/19 05:58:11;;;;;;;3.45;1.48;;;;;;;14.31;100.00;96616.16;5097419;27;20083;-48
2023/02/19 06:00:40;;;;;;;3.00;1.50;;;;;;;14.44;100.00;96611.22;5095990;27;20090;-51
2023/02/19 06:03:09;;;;;;;2.58;1.70;;;;;;;14.59;100.00;96611.41;5099706;27;20079;-48
2023/02/19 06:05:38;;;;;;;2.17;1.50;;;;;;;14.91;100.00;96621.19;5099278;27;20099;-47
2023/02/19 06:08:06;;;;;;;3.80;2.00;;;;;;;14.92;100.00;96618.34;5097791;27;20231;-48
2023/02/19 06:10:36;;;;;;;1.55;1.40;;;;;;;14.65;100.00;96621.38;5092175;27;20075;-46
2023/02/19 06:13:04;;;;;;;2.83;1.50;;;;;;;15.03;100.00;96626.97;5099872;28;20094;-48
2023/02/19 06:15:32;;;;;;;3.13;1.33;;;;;;;14.54;100.00;96621.69;5098559;27;20082;-47
2023/02/19 06:18:01;;;;;;;2.20;1.85;;;;;;;14.53;100.00;96622.69;5091240;27;20110;-48
2023/02/19 06:20:31;;;;;;;2.47;1.77;;;;;;;14.65;100.00;96634.63;5095683;27;20086;-53
2023/02/19 06:23:00;;;;;;;3.00;1.73;;;;;;;14.77;100.00;96640.47;5092710;28;20083;-52
2023/02/19 06:25:28;;;;;;;3.40;1.80;;;;;;;14.65;100.00;96640.75;5093936;27;20087;-53
2023/02/19 06:27:56;;;;;;;2.15;1.60;;;;;;;14.73;100.00;96642.63;5098830;27;20086;-52
2023/02/19 06:30:24;;;;;;;2.17;1.50;;;;;;;14.74;100.00;96643.44;5099652;27;20459;-47
2023/02/19 06:32:53;;;;;;;1.90;1.30;;;;;;;14.72;100.00;96641.75;5107931;27;20089;-53
2023/02/19 06:35:22;;;;;;;3.55;2.30;;;;;;;14.91;100.00;96642.44;5091440;27;20079;-48
2023/02/19 06:37:51;;;;;;;2.72;1.83;;;;;;;14.72;100.00;96651.56;5099199;27;20264;-51
2023/02/19 06:40:19;;;;;;;2.47;1.77;;;;;;;14.40;100.00;96657.63;5105688;27;20074;-48
2023/02/19 06:42:48;;;;;;;2.35;1.63;;;;;;;14.59;100.00;96657.38;5103948;27;20083;-50
2023/02/19 06:45:16;;;;;;;3.00;1.85;;;;;;;14.37;100.00;96664.09;5100748;27;20103;-48
2023/02/19 06:47:44;;;;;;;2.95;2.47;;;;;;;14.44;100.00;96665.09;5096459;28;20109;-50
2023/02/19 06:50:12;;;;;;;2.70;1.85;;;;;;;14.54;100.00;96670.28;5101874;27;20082;-52
2023/02/19 06:52:41;;;;;;;2.25;1.48;;;;;;;14.78;100.00;96673.97;5097630;27;20079;-49
2023/02/19 06:55:10;;;;;;;2.35;1.67;;;;;;;14.74;100.00;96676.13;5095048;27;20084;-51
2023/02/19 06:57:39;;;;;;;2.22;1.73;;;;;;;14.67;100.00;96681.25;5093297;27;20436;-52
2023/02/19 07:00:08;;;;;;;2.42;1.60;;;;;;;14.17;100.00;96681.28;5092661;28;20467;-48
2023/02/19 07:02:37;;;;;;;4.55;1.80;;;;;;;14.72;100.00;96684.22;5096246;27;20071;-51
2023/02/19 07:05:06;;;;;;;1.83;1.38;;;;;;;14.67;100.00;96685.75;5098393;27;20689;-48
2023/02/19 07:07:34;;;;;;;2.03;1.20;;;;;;;14.41;100.00;96689.31;5096019;27;20181;-50
2023/02/19 07:10:02;;;;;;;3.28;2.17;;;;;;;14.79;100.00;96699.50;5101431;27;20087;-50
2023/02/19 07:12:32;;;;;;;2.30;1.60;;;;;;;14.64;100.00;96700.16;5098248;27;20083;-49
2023/02/19 07:15:00;;;;;;;2.00;1.40;;;;;;;14.58;100.00;96710.59;5095836;27;20094;-47
2023/02/19 07:17:28;;;;;;;2.15;1.50;;;;;;;14.60;100.00;96711.28;5095282;27;20075;-45
2023/02/19 07:19:57;;;;;;;2.22;1.42;;;;;;;14.96;100.00;96702.00;5096080;28;20078;-51
2023/02/19 07:22:25;;;;;;;2.42;1.63;;;;;;;14.63;100.00;96721.56;5102938;27;20079;-49
2023/02/19 07:24:53;;;;;;;3.45;2.10;;;;;;;14.51;100.00;96720.22;5101091;27;20075;-47
2023/02/19 07:27:21;;;;;;;2.03;1.40;;;;;;;13.96;100.00;96730.28;5089465;28;20075;-53
2023/02/19 07:29:51;;;;;;;4.13;2.00;;;;;;;14.10;100.00;96728.84;5095229;27;20078;-53
2023/02/19 07:32:19;;;;;;;2.60;1.80;;;;;;;14.29;100.00;96734.91;5096833;27;20113;-50
2023/02/19 07:34:48;;;;;;;3.42;1.88;;;;;;;14.25;100.00;96737.03;5094426;28;20090;-49
2023/02/19 07:37:16;;;;;;;3.53;1.95;;;;;;;14.25;100.00;96760.91;5099902;27;20440;-46
2023/02/19 07:39:44;;;;;;;3.13;2.30;;;;;;;14.32;100.00;96761.09;5092906;28;20480;-46
2023/02/19 07:42:12;;;;;;;3.03;1.85;;;;;;;14.71;100.00;96756.91;5100385;28;20094;-50
2023/02/19 07:44:41;;;;;;;2.75;1.75;;;;;;;14.61;100.00;96774.81;5098103;27;20090;-49
2023/02/19 07:47:10;;;;;;;3.25;1.63;;;;;;;14.22;100.00;96779.78;5102101;27;20086;-51
2023/02/19 07:49:38;;;;;;;2.13;1.80;;;;;;;13.85;100.00;96775.63;5097912;27;20074;-51
2023/02/19 07:52:07;;;;;;;3.60;1.95;;;;;;;14.57;100.00;96789.41;5100663;27;20130;-54
2023/02/19 07:54:35;;;;;;;4.38;1.98;;;;;;;13.76;100.00;96787.16;5089964;28;20083;-46
2023/02/19 07:57:03;;;;;;;3.25;1.85;;;;;;;13.93;100.00;96796.03;5089044;28;20083;-47
2023/02/19 07:59:32;;;;;;;4.68;2.63;;;;;;;13.37;100.00;96803.47;5103089;28;20094;-50
2023/02/19 08:04:48;;;;;;;3.35;2.65;;;;;;;13.94;100.00;96811.81;5102568;28;20067;-50
2023/02/19 08:07:16;;;;;;;4.40;2.50;;;;;;;14.45;100.00;96803.91;5098396;28;20535;-49
2023/02/19 08:13:17;;;;;;;7.40;2.28;;;;;;;14.11;100.00;96802.13;5092466;28;20091;-49
2023/02/19 08:15:19;;;;;;;5.18;2.35;;;;;;;14.40;100.00;96820.31;5098750;28;20451;-51
2023/02/19 08:17:49;;;;;;;;;;;;;;;14.79;100.00;96819.81;5102326;28;20079;-51
2023/02/19 08:20:19;;;;;;;3.78;2.20;;;;;;;14.63;100.00;96822.44;5101800;27;19959;-49
2023/02/19 08:22:47;;;;;;;2.50;1.92;;;;;;;14.40;100.00;96822.97;5097381;28;20133;-50
2023/02/19 08:25:15;;;;;;;2.92;1.75;;;;;;;14.67;100.00;96824.59;5097014;28;20499;-51
2023/02/19 08:27:44;;;;;;;4.30;2.17;;;;;;;14.93;100.00;96816.56;5113897;27;20070;-51
2023/02/19 08:30:13;;;;;;;4.00;2.10;;;;;;;14.94;100.00;96807.59;5103614;27;20055;-51
2023/02/19 08:32:41;;;;;;;2.50;1.92;;;;;;;14.79;100.00;96818.97;5113763;27;20076;-49
2023/02/19 08:35:10;;;;;;;2.88;1.88;;;;;;;15.07;100.00;96820.41;5107439;27;20066;-49
2023/02/19 08:37:39;;;;;;;2.50;2.08;;;;;;;15.46;100.00;96819.75;5107524;27;20075;-53
2023/02/19 08:40:08;;;;;;;2.33;1.42;;;;;;;15.28;100.00;96819.91;5098332;27;20071;-50
2023/02/19 08:42:37;;;;;;;2.03;1.63;;;;;;;15.54;100.00;96825.06;5105170;27;20067;-47
2023/02/19 08:45:06;;;;;;;1.75;1.40;;;;;;;15.54;100.00;96813.59;5111563;27;20048;-48
2023/02/19 08:47:35;;;;;;;1.17;0.90;;;;;;;14.67;100.00;96847.66;5099686;27;20063;-49
2023/02/19 08:50:04;;;;;;;0.70;0.60;;;;;;;14.14;100.00;96849.56;5097239;28;20067;-49
2023/02/19 08:52:32;;;;;;;0.40;0.40;;;;;;;14.00;100.00;96848.31;5103352;27;20502;-46
2023/02/19 08:55:02;;;;;;;0.40;0.40;;;;;;;13.98;100.00;96860.88;5102065;27;20463;-48
2023/02/19 08:57:31;;;;;;;0.40;0.30;;;;;;;13.35;100.00;96866.38;5102723;27;20530;-52
2023/02/19 08:59:59;;;;;;;0.45;0.40;;;;;;;13.95;100.00;96855.88;5110786;27;20511;-51
2023/02/19 09:02:28;;;;;;;0.40;0.40;;;;;;;13.94;100.00;96853.41;5104278;27;20058;-47
2023/02/19 09:04:56;;;;;;;3.95;0.82;;;;;;;13.44;100.00;96852.19;5107246;27;20079;-47
2023/02/19 09:07:24;;;;;;;1.42;0.50;;;;;;;13.21;100.00;96845.66;5106394;27;20079;-51
2023/02/19 09:09:52;;;;;;;0.30;0.30;;;;;;;13.71;100.00;96850.44;5104012;27;20448;-48
2023/02/19 09:12:22;;;;;;;0.43;0.30;;;;;;;14.17;100.00;96843.91;5106065;27;20082;-49
2023/02/19 09:14:51;;;;;;;1.05;0.55;;;;;;;13.77;100.00;96853.28;5099716;27;20063;-52
2023/02/19 09:17:19;;;;;;;0.73;0.38;;;;;;;14.17;100.00;96857.16;5110557;27;20082;-53
2023/02/19 09:19:47;;;;;;;1.45;0.50;;;;;;;14.38;100.00;96851.50;5107159;27;20070;-49
2023/02/19 09:22:18;;;;;;;0.70;0.60;;;;;;;14.45;100.00;96835.75;5096120;27;20625;-50
2023/02/19 09:24:46;;;;;;;0.45;0.45;;;;;;;14.38;100.00;96851.50;5105708;27;20081;-50
2023/02/19 09:27:15;;;;;;;0.43;0.43;;;;;;;14.40;100.00;96852.16;5100608;27;20495;-47
2023/02/19 09:29:45;;;;;;;3.88;0.70;;;;;;;14.65;100.00;96836.38;5095782;27;20067;-51
2023/02/19 09:32:14;;;;;;;1.13;0.80;;;;;;;15.17;100.00;96841.47;5107567;27;20051;-46
2023/02/19 09:34:44;;;;;;;0.85;0.63;;;;;;;15.29;100.00;96839.34;5107228;27;20070;-47
2023/02/19 09:37:12;;;;;;;0.88;0.75;;;;;;;15.56;100.00;96839.03;5098485;28;20078;-49
2023/02/19 09:39:41;;;;;;;2.28;0.40;;;;;;;15.40;100.00;96842.50;5098887;27;20087;-51
2023/02/19 09:42:14;;;;;;;1.73;0.90;;;;;;;15.06;100.00;96842.63;5096915;27;20059;-50
2023/02/19 09:44:47;;;;;;;2.75;0.75;;;;;;;15.79;100.00;96841.03;5105864;27;20659;-49
2023/02/19 09:47:17;;;;;;;1.17;0.80;;;;;;;15.83;100.00;96832.56;5099540;28;20079;-48
2023/02/19 09:49:51;;;;;;;0.75;0.63;;;;;;;15.38;100.00;96844.50;5106299;27;20071;-49
2023/02/19 09:52:26;;;;;;;1.10;0.70;;;;;;;15.63;100.00;96855.97;5105861;27;20078;-50
2023/02/19 09:54:58;;;;;;;0.50;0.50;;;;;;;15.14;100.00;96842.66;5103078;27;20066;-47
2023/02/19 09:57:28;;;;;;;0.47;0.40;;;;;;;14.84;100.00;96838.75;5107318;27;20083;-49
2023/02/19 10:00:02;;;;;;;0.30;0.30;;;;;;;15.20;100.00;96857.91;5106998;27;20064;-48
2023/02/19 10:02:31;;;;;;;0.80;0.50;;;;;;;15.36;100.00;96845.66;5109369;27;20071;-49
2023/02/19 10:05:00;;;;;;;0.75;0.40;;;;;;;15.14;100.00;96863.03;5099782;28;20424;-47
2023/02/19 10:07:35;;;;;;;0.28;0.28;;;;;;;15.48;100.00;96860.25;5108889;27;20071;-46
2023/02/19 10:10:18;;;;;;;0.88;0.40;;;;;;;15.37;100.00;96850.78;5099077;27;20577;-50
2023/02/19 10:12:49;;;;;;;0.30;0.30;;;;;;;15.40;100.00;96861.09;5105249;27;20459;-49
2023/02/19 10:15:25;;;;;;;0.82;0.65;;;;;;;15.52;100.00;96872.25;5103746;27;20075;-50
2023/02/19 10:17:53;;;;;;;0.40;0.40;;;;;;;15.10;100.00;96857.22;5101997;27;20074;-48
2023/02/19 10:20:23;;;;;;;0.40;0.40;;;;;;;15.55;100.00;96871.06;5097811;27;20078;-49
2023/02/19 10:22:57;;;;;;;0.43;0.43;;;;;;;14.99;100.00;96860.19;5094641;27;20090;-49
2023/02/19 10:25:26;;;;;;;1.30;0.40;;;;;;;15.57;100.00;96877.88;5103715;27;20087;-49
2023/02/19 10:27:54;;;;;;;0.50;0.50;;;;;;;15.54;99.81;96859.59;5111247;27;20067;-47
2023/02/19 10:30:26;;;;;;;0.65;0.50;;;;;;;15.90;100.00;96865.47;5104440;27;20078;-51
2023/02/19 10:33:00;;;;;;;0.70;0.35;;;;;;;16.22;95.12;96876.22;5097211;27;20059;-49
2023/02/19 10:35:29;;;;;;;0.50;0.40;;;;;;;16.09;86.28;96885.53;5108103;27;20067;-53
2023/02/19 10:37:57;;;;;;;0.65;0.47;;;;;;;16.32;95.00;96863.56;5097830;27;20075;-53
2023/02/19 10:40:27;;;;;;;0.65;0.45;;;;;;;16.39;91.03;96859.19;5111062;27;20478;-51
2023/02/19 10:42:57;;;;;;;0.63;0.50;;;;;;;16.01;98.27;96872.25;5107690;27;20066;-49
2023/02/19 10:45:32;;;;;;;0.50;0.30;;;;;;;16.32;100.00;96896.31;5106443;28;20074;-47
2023/02/19 10:48:01;;;;;;;1.42;0.50;;;;;;;15.76;86.47;96886.56;5103123;27;20580;-47
2023/02/19 10:50:31;;;;;;;0.95;0.57;;;;;;;15.57;83.72;96879.72;5095851;27;20071;-50
2023/02/19 10:53:00;;;;;;;0.70;0.50;;;;;;;15.72;88.87;96899.34;5095959;27;20067;-51
2023/02/19 10:55:31;;;;;;;1.08;0.60;;;;;;;15.33;90.26;96896.47;5103757;27;20059;-48
2023/02/19 10:58:22;;;;;;;1.63;0.68;;;;;;;15.64;93.98;96862.09;5100368;28;20086;-50
2023/02/19 11:00:56;;;;;;;;;;;;;;;15.95;94.37;96864.94;5093892;27;20075;-49
2023/02/19 11:03:24;;;;;;;0.85;0.47;;;;;;;16.64;87.76;96886.56;5099220;27;19965;-50
2023/02/19 11:06:00;;;;;;;1.33;0.40;;;;;;;16.64;86.49;96867.94;5103648;27;20448;-50
2023/02/19 11:08:28;;;;;;;0.43;0.40;;;;;;;16.65;87.58;96874.06;5105463;27;20068;-51
2023/02/19 11:10:57;;;;;;;0.82;0.40;;;;;;;16.12;77.74;96858.59;5095791;27;20078;-51
2023/02/19 11:13:31;;;;;;;0.93;0.52;;;;;;;15.57;78.61;96859.28;5101778;27;20071;-50
2023/02/19 11:16:00;;;;;;;0.25;0.25;;;;;;;16.31;76.71;96868.06;5104939;27;20075;-52
2023/02/19 11:18:31;;;;;;;0.57;0.30;;;;;;;16.44;80.10;96858.69;5095743;28;20075;-50
2023/02/19 11:21:01;;;;;;;0.40;0.30;;;;;;;16.45;74.84;96853.19;5098303;28;20063;-49
2023/02/19 11:23:31;;;;;;;0.30;0.30;;;;;;;16.58;72.94;96855.28;5100756;27;20079;-49
2023/02/19 11:26:01;;;;;;;0.45;0.38;;;;;;;17.01;65.57;96875.28;5097002;27;20074;-48
2023/02/19 11:28:33;;;;;;;0.40;0.40;;;;;;;16.77;65.34;96873.56;5097843;28;20082;-51
2023/02/19 11:31:23;;;;;;;0.68;0.40;;;;;;;16.88;58.49;96868.84;5096528;28;20074;-51
2023/02/19 11:33:56;;;;;;;0.40;0.30;;;;;;;16.64;70.48;96883.91;5108543;27;20082;-48
2023/02/19 11:36:28;;;;;;;0.20;0.20;;;;;;;17.09;68.07;96883.22;5105794;27;20067;-46
2023/02/19 11:38:59;;;;;;;0.65;0.40;;;;;;;17.26;69.65;96889.28;5099249;27;22005;-47
2023/02/19 11:41:43;;;;;;;1.40;0.43;;;;;;;17.06;77.51;96896.88;5094754;28;20082;-46
2023/02/19 11:44:24;;;;;;;1.42;0.40;;;;;;;17.10;80.03;96889.38;5102544;27;20121;-52
2023/02/19 11:47:11;;;;;;;0.85;0.40;;;;;;;16.83;86.92;96875.53;5105697;27;20083;-46
2023/02/19 11:49:46;;;;;;;0.60;0.40;;;;;;;16.63;90.21;96900.06;5097640;28;20597;-51
2023/02/19 11:52:26;;;;;;;0.30;0.30;;;;;;;16.89;89.17;96897.16;5104625;27;20099;-51
2023/02/19 11:55:02;;;;;;;0.30;0.30;;;;;;;16.44;92.56;96899.44;5098224;27;20665;-51
2023/02/19 11:57:39;;;;;;;0.47;0.47;;;;;;;16.13;98.41;96899.34;5091207;27;20094;-50
2023/02/19 12:00:23;;;;;;;0.82;0.45;;;;;;;16.63;95.48;96881.44;5097846;27;20074;-50
2023/02/19 12:03:17;;;;;;;0.55;0.40;;;;;;;16.50;94.91;96893.44;5098095;27;20505;-51
2023/02/19 12:05:50;;;;;;;1.00;0.45;;;;;;;16.22;94.83;96902.81;5094884;27;21778;-48
2023/02/19 12:08:38;;;;;;;0.65;0.50;;;;;;;15.80;83.72;96885.25;5094636;27;20539;-51